Zipperlenville, Texas
Current Conditions -  °F | °C
As of 7:35 PM on Saturday 20 Dec 2014 (Local Time) from KT35 Reporting Station
Overcast Overcast  
Wind Chill: 51°   Ceiling: 1400
Heat Index: 51°   Visibility: 10mi
Dew Point: 48°   Wind: 0mph
Humidity: 90%   Direction: NA
Pressure: 30.19"   Gusts: NA
Location:  31.0981°N, 96.99°W
Report Text: KT35 210135Z AUTO 00000KT 10SM OVC014 11/09 A3019 RMK AO2 T01050089
Loading
Personal Weather Stations






























Interactive Weather Map New forecast layout! Learn more

10-Day Weather Forecast

Advertisements
Track Severe Weather on mobile